Haddam, CT (06438)

6:53 AM EST on December 18, 2014 (GMT -0500)
KCTMOODU1 | Change Station
CLOSE
Current Station
Personal Weather Station
Location: Moodus, CT
Elevation: 272 ft
Nearby Weather Stations

Elev 272 ft 41.51 °N, 72.44 °W | Updated 3 minutes ago

Snow
Snow
35.6 °F
Feels Like 29 °F
N
8.1
Wind Variable Wind from WNW
Gusts 8.1 mph

Today
High -- | Low -- °F
--% Chance of Precip.
Yesterday
High -- | Low -- °F
Precip. -- in
7:11 AM 4:22 PM
Waning Crescent, 15% visible
Pressure 29.85 in
Visibility 4.0 miles
Clouds Scattered Clouds 100 ft
Mostly Cloudy 1000 ft
Overcast 1500 ft
Windchill 29 °F
Dew Point 25 °F
Humidity 64%
Rainfall -999.00 in
Snow Depth Not available.
UV 0 out of 12
Pollen .10 out of 12
Air Quality Not available.
Flu Activity Not available.
METAR KSNC 181135Z AUTO 30007KT 4SM -SN SCT001 BKN010 OVC015 02/00 A2985 RMK AO2 P0021

More Conditions Fewer Conditions

Pressure 29.85 in
Visibility 4.0 miles
Clouds Scattered Clouds 100 ft
Mostly Cloudy 1000 ft
Overcast 1500 ft
Windchill 29 °F
Dew Point 25 °F
Humidity 64%
Rainfall -999.00 in
Snow Depth Not available.
UV 0 out of 12
Pollen .10 out of 12
Air Quality Not available.
Flu Activity Not available.
METAR KSNC 181135Z AUTO 30007KT 4SM -SN SCT001 BKN010 OVC015 02/00 A2985 RMK AO2 P0021

More Conditions Fewer Conditions

Nowcast | as of 6:08 am EST on December 18, 2014

Snow showers falling in a narrow band across northern and central Middlesex County will continue until 640 am EST. A dusting of light snow is possible as temperatures fall into the lower 30s. Motorists should exercise caution while driving on wet and slippery roads during this mornings rush hour.

×

10-Day Weather Forecast

Almanac

Astronomy

Dec. 18, 2014 Rise Set
Actual Time
Civil Twilight
Nautical Twilight
Astronomical Twilight
Moon
Length of Visible Light
Length of Day
Tomorrow will be .
, % of the Moon is Illuminated

Today's Extremes

State Highs State Lows

Community

WunderPhotos

Upload Photos

1,778,919 photos uploaded!

WunderBlogs® & News

Nearby

Air Quality

  Air Quality AQ Index Pollutant
Not available.

Snow Depth

Station Depth Elevation

Earthquake Activity

City Distance Mag. Time & Date
Minimum magnitude displayed is 2.5.

Coastal Water Temperatures

Place Temperature

Nearby Weather Stations